sensor_id;sensor_type;location;lat;lon;timestamp;P1;durP1;ratioP1;P2;durP2;ratioP2
50900;SDS011;36879;51.416;6.678;2022-12-15T00:02:02;38.15;;;19.92;;
50900;SDS011;36879;51.416;6.678;2022-12-15T00:04:47;39.60;;;18.05;;
50900;SDS011;36879;51.416;6.678;2022-12-15T00:07:32;40.55;;;19.50;;
50900;SDS011;36879;51.416;6.678;2022-12-15T00:10:17;43.85;;;18.95;;
50900;SDS011;36879;51.416;6.678;2022-12-15T00:13:01;41.20;;;20.15;;
50900;SDS011;36879;51.416;6.678;2022-12-15T00:15:46;34.42;;;19.67;;
50900;SDS011;36879;51.416;6.678;2022-12-15T00:18:31;39.00;;;19.65;;
50900;SDS011;36879;51.416;6.678;2022-12-15T00:21:15;42.05;;;19.70;;
50900;SDS011;36879;51.416;6.678;2022-12-15T00:24:00;42.08;;;19.67;;
50900;SDS011;36879;51.416;6.678;2022-12-15T00:26:44;33.22;;;19.70;;
50900;SDS011;36879;51.416;6.678;2022-12-15T00:29:29;39.35;;;19.13;;
50900;SDS011;36879;51.416;6.678;2022-12-15T00:32:14;33.05;;;18.73;;
50900;SDS011;36879;51.416;6.678;2022-12-15T00:34:58;31.35;;;18.60;;
50900;SDS011;36879;51.416;6.678;2022-12-15T00:37:43;33.63;;;19.55;;
50900;SDS011;36879;51.416;6.678;2022-12-15T00:40:27;34.95;;;17.55;;
50900;SDS011;36879;51.416;6.678;2022-12-15T00:42:53;39.97;;;19.67;;
50900;SDS011;36879;51.416;6.678;2022-12-15T00:45:19;38.10;;;19.80;;
50900;SDS011;36879;51.416;6.678;2022-12-15T00:48:05;39.58;;;19.45;;
50900;SDS011;36879;51.416;6.678;2022-12-15T00:50:31;36.88;;;19.63;;
50900;SDS011;36879;51.416;6.678;2022-12-15T00:53:16;43.42;;;20.02;;
50900;SDS011;36879;51.416;6.678;2022-12-15T00:56:00;40.38;;;21.20;;
50900;SDS011;36879;51.416;6.678;2022-12-15T00:58:45;50.38;;;21.55;;
50900;SDS011;36879;51.416;6.678;2022-12-15T01:01:29;35.17;;;18.73;;
50900;SDS011;36879;51.416;6.678;2022-12-15T01:04:14;40.25;;;21.40;;
50900;SDS011;36879;51.416;6.678;2022-12-15T01:06:59;45.08;;;20.67;;
50900;SDS011;36879;51.416;6.678;2022-12-15T01:09:43;39.00;;;19.20;;
50900;SDS011;36879;51.416;6.678;2022-12-15T01:12:28;41.47;;;19.35;;
50900;SDS011;36879;51.416;6.678;2022-12-15T01:15:12;35.80;;;19.27;;
50900;SDS011;36879;51.416;6.678;2022-12-15T01:17:57;41.97;;;20.65;;
50900;SDS011;36879;51.416;6.678;2022-12-15T01:20:41;44.03;;;20.63;;
50900;SDS011;36879;51.416;6.678;2022-12-15T01:23:07;46.85;;;22.60;;
50900;SDS011;36879;51.416;6.678;2022-12-15T01:25:34;52.67;;;23.80;;
50900;SDS011;36879;51.416;6.678;2022-12-15T01:28:02;50.53;;;21.00;;
50900;SDS011;36879;51.416;6.678;2022-12-15T01:30:28;38.00;;;20.08;;
50900;SDS011;36879;51.416;6.678;2022-12-15T01:32:54;42.95;;;20.92;;
50900;SDS011;36879;51.416;6.678;2022-12-15T01:35:20;39.00;;;19.40;;
50900;SDS011;36879;51.416;6.678;2022-12-15T01:37:46;36.72;;;18.98;;
50900;SDS011;36879;51.416;6.678;2022-12-15T01:40:13;35.08;;;18.35;;
50900;SDS011;36879;51.416;6.678;2022-12-15T01:42:58;40.22;;;19.52;;
50900;SDS011;36879;51.416;6.678;2022-12-15T01:48:16;51.47;;;21.10;;
50900;SDS011;36879;51.416;6.678;2022-12-15T01:50:41;38.00;;;19.17;;
50900;SDS011;36879;51.416;6.678;2022-12-15T01:53:09;37.53;;;17.85;;
50900;SDS011;36879;51.416;6.678;2022-12-15T01:55:36;39.53;;;20.00;;
50900;SDS011;36879;51.416;6.678;2022-12-15T01:58:04;38.83;;;19.92;;
50900;SDS011;36879;51.416;6.678;2022-12-15T02:00:31;37.78;;;18.35;;
50900;SDS011;36879;51.416;6.678;2022-12-15T02:02:57;39.28;;;20.30;;
50900;SDS011;36879;51.416;6.678;2022-12-15T02:05:25;42.75;;;19.55;;
50900;SDS011;36879;51.416;6.678;2022-12-15T02:07:51;27.90;;;16.20;;
50900;SDS011;36879;51.416;6.678;2022-12-15T02:10:17;43.72;;;17.67;;
50900;SDS011;36879;51.416;6.678;2022-12-15T02:13:05;32.05;;;17.65;;
50900;SDS011;36879;51.416;6.678;2022-12-15T02:18:16;31.38;;;16.83;;
50900;SDS011;36879;51.416;6.678;2022-12-15T02:28:46;37.88;;;16.85;;
50900;SDS011;36879;51.416;6.678;2022-12-15T02:31:16;34.30;;;16.83;;
50900;SDS011;36879;51.416;6.678;2022-12-15T02:34:05;37.40;;;18.85;;
50900;SDS011;36879;51.416;6.678;2022-12-15T02:36:37;39.38;;;19.10;;
50900;SDS011;36879;51.416;6.678;2022-12-15T02:39:04;41.08;;;18.20;;
50900;SDS011;36879;51.416;6.678;2022-12-15T02:43:56;47.42;;;19.30;;
50900;SDS011;36879;51.416;6.678;2022-12-15T02:49:37;37.75;;;20.05;;
50900;SDS011;36879;51.416;6.678;2022-12-15T02:57:18;39.47;;;17.17;;
50900;SDS011;36879;51.416;6.678;2022-12-15T02:59:59;35.72;;;17.08;;
50900;SDS011;36879;51.416;6.678;2022-12-15T03:02:26;32.75;;;17.70;;
50900;SDS011;36879;51.416;6.678;2022-12-15T03:04:54;36.42;;;17.13;;
50900;SDS011;36879;51.416;6.678;2022-12-15T03:07:21;38.10;;;20.13;;
50900;SDS011;36879;51.416;6.678;2022-12-15T03:09:47;36.85;;;18.92;;
50900;SDS011;36879;51.416;6.678;2022-12-15T03:12:13;39.05;;;19.65;;
50900;SDS011;36879;51.416;6.678;2022-12-15T03:14:39;41.83;;;19.17;;
50900;SDS011;36879;51.416;6.678;2022-12-15T03:17:05;49.88;;;20.85;;
50900;SDS011;36879;51.416;6.678;2022-12-15T03:19:31;41.20;;;20.27;;
50900;SDS011;36879;51.416;6.678;2022-12-15T03:21:57;47.65;;;21.10;;
50900;SDS011;36879;51.416;6.678;2022-12-15T03:24:23;41.40;;;20.80;;
50900;SDS011;36879;51.416;6.678;2022-12-15T03:26:49;44.95;;;21.42;;
50900;SDS011;36879;51.416;6.678;2022-12-15T03:29:16;49.65;;;23.48;;
50900;SDS011;36879;51.416;6.678;2022-12-15T03:31:42;48.15;;;20.05;;
50900;SDS011;36879;51.416;6.678;2022-12-15T03:34:08;38.30;;;22.50;;
50900;SDS011;36879;51.416;6.678;2022-12-15T03:36:34;45.03;;;23.83;;
50900;SDS011;36879;51.416;6.678;2022-12-15T03:39:00;41.55;;;22.40;;
50900;SDS011;36879;51.416;6.678;2022-12-15T03:41:26;49.35;;;21.90;;
50900;SDS011;36879;51.416;6.678;2022-12-15T03:43:52;50.95;;;22.67;;
50900;SDS011;36879;51.416;6.678;2022-12-15T03:46:18;46.70;;;23.67;;
50900;SDS011;36879;51.416;6.678;2022-12-15T03:48:44;39.88;;;22.88;;
50900;SDS011;36879;51.416;6.678;2022-12-15T03:51:10;39.25;;;21.13;;
50900;SDS011;36879;51.416;6.678;2022-12-15T03:53:36;41.55;;;22.10;;
50900;SDS011;36879;51.416;6.678;2022-12-15T03:56:02;49.85;;;24.13;;
50900;SDS011;36879;51.416;6.678;2022-12-15T03:58:28;46.53;;;23.23;;
50900;SDS011;36879;51.416;6.678;2022-12-15T04:00:54;52.80;;;25.10;;
50900;SDS011;36879;51.416;6.678;2022-12-15T04:03:20;44.60;;;24.48;;
50900;SDS011;36879;51.416;6.678;2022-12-15T04:05:46;55.90;;;25.40;;
50900;SDS011;36879;51.416;6.678;2022-12-15T04:08:12;50.65;;;26.67;;
50900;SDS011;36879;51.416;6.678;2022-12-15T04:10:38;52.85;;;25.83;;
50900;SDS011;36879;51.416;6.678;2022-12-15T04:13:05;59.30;;;27.35;;
50900;SDS011;36879;51.416;6.678;2022-12-15T04:15:32;55.97;;;26.17;;
50900;SDS011;36879;51.416;6.678;2022-12-15T04:17:59;52.65;;;28.98;;
50900;SDS011;36879;51.416;6.678;2022-12-15T04:20:26;65.85;;;29.83;;
50900;SDS011;36879;51.416;6.678;2022-12-15T04:22:52;58.53;;;28.95;;
50900;SDS011;36879;51.416;6.678;2022-12-15T04:25:19;51.20;;;27.05;;
50900;SDS011;36879;51.416;6.678;2022-12-15T04:28:05;58.53;;;26.80;;
50900;SDS011;36879;51.416;6.678;2022-12-15T04:30:51;52.88;;;25.65;;
50900;SDS011;36879;51.416;6.678;2022-12-15T04:33:36;53.03;;;27.60;;
50900;SDS011;36879;51.416;6.678;2022-12-15T04:36:23;43.75;;;24.35;;
50900;SDS011;36879;51.416;6.678;2022-12-15T04:39:07;50.25;;;23.48;;
50900;SDS011;36879;51.416;6.678;2022-12-15T04:41:52;51.75;;;25.85;;
50900;SDS011;36879;51.416;6.678;2022-12-15T04:44:37;54.10;;;25.90;;
50900;SDS011;36879;51.416;6.678;2022-12-15T04:47:22;55.17;;;25.55;;
50900;SDS011;36879;51.416;6.678;2022-12-15T04:50:07;55.40;;;25.10;;
50900;SDS011;36879;51.416;6.678;2022-12-15T04:52:51;53.50;;;25.38;;
50900;SDS011;36879;51.416;6.678;2022-12-15T04:55:36;45.90;;;25.70;;
50900;SDS011;36879;51.416;6.678;2022-12-15T04:58:21;43.40;;;25.63;;
50900;SDS011;36879;51.416;6.678;2022-12-15T05:01:05;54.30;;;27.33;;
50900;SDS011;36879;51.416;6.678;2022-12-15T05:03:50;61.03;;;29.23;;
50900;SDS011;36879;51.416;6.678;2022-12-15T05:06:34;58.22;;;29.85;;
50900;SDS011;36879;51.416;6.678;2022-12-15T05:09:20;62.42;;;28.77;;
50900;SDS011;36879;51.416;6.678;2022-12-15T05:12:04;60.40;;;29.42;;
50900;SDS011;36879;51.416;6.678;2022-12-15T05:14:49;58.97;;;29.42;;
50900;SDS011;36879;51.416;6.678;2022-12-15T05:17:33;52.42;;;26.58;;
50900;SDS011;36879;51.416;6.678;2022-12-15T05:20:18;59.22;;;28.75;;
50900;SDS011;36879;51.416;6.678;2022-12-15T05:23:02;53.40;;;26.52;;
50900;SDS011;36879;51.416;6.678;2022-12-15T05:25:47;54.83;;;28.75;;
50900;SDS011;36879;51.416;6.678;2022-12-15T05:28:31;59.17;;;29.73;;
50900;SDS011;36879;51.416;6.678;2022-12-15T05:31:16;50.60;;;25.42;;
50900;SDS011;36879;51.416;6.678;2022-12-15T05:34:00;57.13;;;26.52;;
50900;SDS011;36879;51.416;6.678;2022-12-15T05:36:26;58.85;;;25.70;;
50900;SDS011;36879;51.416;6.678;2022-12-15T05:38:52;54.47;;;25.98;;
50900;SDS011;36879;51.416;6.678;2022-12-15T05:41:19;54.00;;;25.83;;
50900;SDS011;36879;51.416;6.678;2022-12-15T05:43:45;54.92;;;26.80;;
50900;SDS011;36879;51.416;6.678;2022-12-15T05:46:11;52.58;;;25.88;;
50900;SDS011;36879;51.416;6.678;2022-12-15T05:48:38;62.10;;;25.55;;
50900;SDS011;36879;51.416;6.678;2022-12-15T05:51:08;61.47;;;30.15;;
50900;SDS011;36879;51.416;6.678;2022-12-15T05:53:35;55.60;;;26.83;;
50900;SDS011;36879;51.416;6.678;2022-12-15T05:56:06;49.47;;;25.52;;
50900;SDS011;36879;51.416;6.678;2022-12-15T05:58:32;57.63;;;29.35;;
50900;SDS011;36879;51.416;6.678;2022-12-15T06:01:05;56.55;;;26.42;;
50900;SDS011;36879;51.416;6.678;2022-12-15T06:03:31;59.92;;;26.98;;
50900;SDS011;36879;51.416;6.678;2022-12-15T06:05:58;60.40;;;27.35;;
50900;SDS011;36879;51.416;6.678;2022-12-15T06:08:24;59.10;;;28.10;;
50900;SDS011;36879;51.416;6.678;2022-12-15T06:10:51;52.95;;;28.08;;
50900;SDS011;36879;51.416;6.678;2022-12-15T06:13:17;61.50;;;27.85;;
50900;SDS011;36879;51.416;6.678;2022-12-15T06:15:52;57.03;;;27.75;;
50900;SDS011;36879;51.416;6.678;2022-12-15T06:18:18;60.83;;;27.70;;
50900;SDS011;36879;51.416;6.678;2022-12-15T06:20:44;70.93;;;29.25;;
50900;SDS011;36879;51.416;6.678;2022-12-15T06:23:10;55.55;;;28.80;;
50900;SDS011;36879;51.416;6.678;2022-12-15T06:25:36;57.58;;;29.30;;
50900;SDS011;36879;51.416;6.678;2022-12-15T06:28:02;61.85;;;28.67;;
50900;SDS011;36879;51.416;6.678;2022-12-15T06:30:28;59.15;;;26.08;;
50900;SDS011;36879;51.416;6.678;2022-12-15T06:32:54;64.47;;;28.80;;
50900;SDS011;36879;51.416;6.678;2022-12-15T06:35:20;67.30;;;30.10;;
50900;SDS011;36879;51.416;6.678;2022-12-15T06:37:46;61.55;;;30.50;;
50900;SDS011;36879;51.416;6.678;2022-12-15T06:40:12;65.25;;;30.10;;
50900;SDS011;36879;51.416;6.678;2022-12-15T06:42:38;69.25;;;29.85;;
50900;SDS011;36879;51.416;6.678;2022-12-15T06:45:04;63.17;;;28.90;;
50900;SDS011;36879;51.416;6.678;2022-12-15T06:47:30;74.72;;;34.60;;
50900;SDS011;36879;51.416;6.678;2022-12-15T06:49:56;65.78;;;29.23;;
50900;SDS011;36879;51.416;6.678;2022-12-15T06:52:22;76.15;;;33.03;;
50900;SDS011;36879;51.416;6.678;2022-12-15T06:54:48;63.40;;;29.55;;
50900;SDS011;36879;51.416;6.678;2022-12-15T06:57:14;77.70;;;31.25;;
50900;SDS011;36879;51.416;6.678;2022-12-15T06:59:40;73.80;;;31.60;;
50900;SDS011;36879;51.416;6.678;2022-12-15T07:02:11;71.57;;;32.67;;
50900;SDS011;36879;51.416;6.678;2022-12-15T07:04:40;71.60;;;33.33;;
50900;SDS011;36879;51.416;6.678;2022-12-15T07:07:07;80.00;;;33.30;;
50900;SDS011;36879;51.416;6.678;2022-12-15T07:09:34;79.47;;;32.80;;
50900;SDS011;36879;51.416;6.678;2022-12-15T07:12:00;77.93;;;35.22;;
50900;SDS011;36879;51.416;6.678;2022-12-15T07:14:26;79.63;;;35.47;;
50900;SDS011;36879;51.416;6.678;2022-12-15T07:16:52;91.50;;;34.75;;
50900;SDS011;36879;51.416;6.678;2022-12-15T07:19:18;87.20;;;34.95;;
50900;SDS011;36879;51.416;6.678;2022-12-15T07:21:44;98.93;;;39.63;;
50900;SDS011;36879;51.416;6.678;2022-12-15T07:24:10;75.30;;;37.05;;
50900;SDS011;36879;51.416;6.678;2022-12-15T07:26:37;93.72;;;33.92;;
50900;SDS011;36879;51.416;6.678;2022-12-15T07:29:03;96.03;;;39.30;;
50900;SDS011;36879;51.416;6.678;2022-12-15T07:31:29;93.43;;;36.72;;
50900;SDS011;36879;51.416;6.678;2022-12-15T07:33:59;92.13;;;37.95;;
50900;SDS011;36879;51.416;6.678;2022-12-15T07:36:25;88.47;;;37.22;;
50900;SDS011;36879;51.416;6.678;2022-12-15T07:38:55;102.07;;;37.63;;
50900;SDS011;36879;51.416;6.678;2022-12-15T07:41:22;85.95;;;38.08;;
50900;SDS011;36879;51.416;6.678;2022-12-15T07:43:48;95.28;;;41.35;;
50900;SDS011;36879;51.416;6.678;2022-12-15T07:46:15;94.40;;;39.10;;
50900;SDS011;36879;51.416;6.678;2022-12-15T07:48:41;89.78;;;39.03;;
50900;SDS011;36879;51.416;6.678;2022-12-15T07:51:07;88.63;;;38.75;;
50900;SDS011;36879;51.416;6.678;2022-12-15T07:53:33;100.53;;;42.75;;
50900;SDS011;36879;51.416;6.678;2022-12-15T07:56:00;99.43;;;40.10;;
50900;SDS011;36879;51.416;6.678;2022-12-15T07:58:26;91.15;;;36.40;;
50900;SDS011;36879;51.416;6.678;2022-12-15T08:00:53;79.68;;;35.28;;
50900;SDS011;36879;51.416;6.678;2022-12-15T08:03:19;94.25;;;37.80;;
50900;SDS011;36879;51.416;6.678;2022-12-15T08:05:45;81.22;;;36.35;;
50900;SDS011;36879;51.416;6.678;2022-12-15T08:08:11;100.88;;;48.63;;
50900;SDS011;36879;51.416;6.678;2022-12-15T08:10:38;104.82;;;45.63;;
50900;SDS011;36879;51.416;6.678;2022-12-15T08:13:04;82.45;;;37.90;;
50900;SDS011;36879;51.416;6.678;2022-12-15T08:15:30;77.35;;;36.05;;
50900;SDS011;36879;51.416;6.678;2022-12-15T08:17:56;79.38;;;35.45;;
50900;SDS011;36879;51.416;6.678;2022-12-15T08:20:22;74.13;;;32.60;;
50900;SDS011;36879;51.416;6.678;2022-12-15T08:22:48;72.78;;;34.05;;
50900;SDS011;36879;51.416;6.678;2022-12-15T08:25:14;67.10;;;32.10;;
50900;SDS011;36879;51.416;6.678;2022-12-15T08:27:40;69.50;;;33.30;;
50900;SDS011;36879;51.416;6.678;2022-12-15T08:30:06;71.32;;;34.25;;
50900;SDS011;36879;51.416;6.678;2022-12-15T08:32:32;68.25;;;33.42;;
50900;SDS011;36879;51.416;6.678;2022-12-15T08:34:58;73.97;;;31.92;;
50900;SDS011;36879;51.416;6.678;2022-12-15T08:37:24;91.38;;;39.15;;
50900;SDS011;36879;51.416;6.678;2022-12-15T08:39:50;68.88;;;34.40;;
50900;SDS011;36879;51.416;6.678;2022-12-15T08:42:16;71.10;;;32.22;;
50900;SDS011;36879;51.416;6.678;2022-12-15T08:44:42;68.32;;;32.25;;
50900;SDS011;36879;51.416;6.678;2022-12-15T08:47:08;67.50;;;33.88;;
50900;SDS011;36879;51.416;6.678;2022-12-15T08:49:34;74.07;;;36.00;;
50900;SDS011;36879;51.416;6.678;2022-12-15T08:52:00;63.15;;;33.38;;
50900;SDS011;36879;51.416;6.678;2022-12-15T08:54:26;59.67;;;32.53;;
50900;SDS011;36879;51.416;6.678;2022-12-15T08:56:52;67.80;;;34.60;;
50900;SDS011;36879;51.416;6.678;2022-12-15T08:59:18;64.00;;;32.47;;
50900;SDS011;36879;51.416;6.678;2022-12-15T09:01:44;67.57;;;34.00;;
50900;SDS011;36879;51.416;6.678;2022-12-15T09:04:10;64.00;;;34.40;;
50900;SDS011;36879;51.416;6.678;2022-12-15T09:06:36;69.88;;;32.33;;
50900;SDS011;36879;51.416;6.678;2022-12-15T09:09:03;68.78;;;32.58;;
50900;SDS011;36879;51.416;6.678;2022-12-15T09:11:31;62.63;;;33.08;;
50900;SDS011;36879;51.416;6.678;2022-12-15T09:13:57;59.15;;;30.70;;
50900;SDS011;36879;51.416;6.678;2022-12-15T09:16:23;68.97;;;33.90;;
50900;SDS011;36879;51.416;6.678;2022-12-15T09:18:51;67.05;;;32.67;;
50900;SDS011;36879;51.416;6.678;2022-12-15T09:21:18;62.25;;;31.17;;
50900;SDS011;36879;51.416;6.678;2022-12-15T09:23:47;60.97;;;32.78;;
50900;SDS011;36879;51.416;6.678;2022-12-15T09:26:15;61.08;;;34.63;;
50900;SDS011;36879;51.416;6.678;2022-12-15T09:28:41;68.00;;;31.85;;
50900;SDS011;36879;51.416;6.678;2022-12-15T09:31:10;63.75;;;32.80;;
50900;SDS011;36879;51.416;6.678;2022-12-15T09:33:36;59.00;;;30.35;;
50900;SDS011;36879;51.416;6.678;2022-12-15T09:36:03;62.38;;;32.83;;
50900;SDS011;36879;51.416;6.678;2022-12-15T09:38:29;72.55;;;36.38;;
50900;SDS011;36879;51.416;6.678;2022-12-15T09:40:55;76.75;;;37.63;;
50900;SDS011;36879;51.416;6.678;2022-12-15T09:43:22;86.43;;;42.05;;
50900;SDS011;36879;51.416;6.678;2022-12-15T09:45:51;99.38;;;41.15;;
50900;SDS011;36879;51.416;6.678;2022-12-15T09:48:18;91.47;;;46.55;;
50900;SDS011;36879;51.416;6.678;2022-12-15T09:50:45;103.85;;;46.22;;
50900;SDS011;36879;51.416;6.678;2022-12-15T09:53:13;91.25;;;43.90;;
50900;SDS011;36879;51.416;6.678;2022-12-15T09:55:41;92.45;;;44.03;;
50900;SDS011;36879;51.416;6.678;2022-12-15T09:58:18;102.78;;;46.33;;
50900;SDS011;36879;51.416;6.678;2022-12-15T10:00:48;109.82;;;48.38;;
50900;SDS011;36879;51.416;6.678;2022-12-15T10:03:33;107.95;;;47.20;;
50900;SDS011;36879;51.416;6.678;2022-12-15T10:08:36;116.00;;;50.17;;
50900;SDS011;36879;51.416;6.678;2022-12-15T10:16:21;128.23;;;53.67;;
50900;SDS011;36879;51.416;6.678;2022-12-15T10:18:52;123.75;;;50.88;;
50900;SDS011;36879;51.416;6.678;2022-12-15T10:21:20;128.82;;;56.88;;
50900;SDS011;36879;51.416;6.678;2022-12-15T10:23:47;121.63;;;52.60;;
50900;SDS011;36879;51.416;6.678;2022-12-15T10:26:18;121.88;;;53.30;;
50900;SDS011;36879;51.416;6.678;2022-12-15T10:31:31;129.77;;;57.42;;
50900;SDS011;36879;51.416;6.678;2022-12-15T10:34:12;129.98;;;59.83;;
50900;SDS011;36879;51.416;6.678;2022-12-15T10:36:45;142.15;;;58.25;;
50900;SDS011;36879;51.416;6.678;2022-12-15T10:39:14;132.02;;;56.78;;
50900;SDS011;36879;51.416;6.678;2022-12-15T10:41:40;132.27;;;59.15;;
50900;SDS011;36879;51.416;6.678;2022-12-15T10:44:16;138.73;;;56.78;;
50900;SDS011;36879;51.416;6.678;2022-12-15T10:46:46;134.18;;;60.10;;
50900;SDS011;36879;51.416;6.678;2022-12-15T10:49:23;145.02;;;58.90;;
50900;SDS011;36879;51.416;6.678;2022-12-15T10:51:54;121.72;;;56.58;;
50900;SDS011;36879;51.416;6.678;2022-12-15T10:54:34;123.47;;;60.08;;
50900;SDS011;36879;51.416;6.678;2022-12-15T10:57:21;124.07;;;57.72;;
50900;SDS011;36879;51.416;6.678;2022-12-15T10:59:47;137.45;;;60.25;;
50900;SDS011;36879;51.416;6.678;2022-12-15T11:07:36;134.55;;;55.90;;
50900;SDS011;36879;51.416;6.678;2022-12-15T11:10:36;124.22;;;59.25;;
50900;SDS011;36879;51.416;6.678;2022-12-15T11:13:16;119.40;;;57.75;;
50900;SDS011;36879;51.416;6.678;2022-12-15T11:15:43;128.98;;;60.25;;
50900;SDS011;36879;51.416;6.678;2022-12-15T11:20:37;130.88;;;59.55;;
50900;SDS011;36879;51.416;6.678;2022-12-15T11:23:07;136.85;;;60.42;;
50900;SDS011;36879;51.416;6.678;2022-12-15T11:25:44;135.13;;;58.00;;
50900;SDS011;36879;51.416;6.678;2022-12-15T11:28:18;127.30;;;57.38;;
50900;SDS011;36879;51.416;6.678;2022-12-15T11:31:11;144.63;;;60.53;;
50900;SDS011;36879;51.416;6.678;2022-12-15T11:33:32;149.93;;;62.17;;
50900;SDS011;36879;51.416;6.678;2022-12-15T11:36:04;132.93;;;61.20;;
50900;SDS011;36879;51.416;6.678;2022-12-15T11:38:38;156.95;;;63.90;;
50900;SDS011;36879;51.416;6.678;2022-12-15T11:46:38;122.30;;;57.63;;
50900;SDS011;36879;51.416;6.678;2022-12-15T11:59:50;118.38;;;54.65;;
50900;SDS011;36879;51.416;6.678;2022-12-15T12:04:55;116.85;;;55.70;;
50900;SDS011;36879;51.416;6.678;2022-12-15T12:07:30;130.95;;;56.65;;
50900;SDS011;36879;51.416;6.678;2022-12-15T12:17:54;115.65;;;55.38;;
50900;SDS011;36879;51.416;6.678;2022-12-15T12:20:28;122.22;;;56.53;;
50900;SDS011;36879;51.416;6.678;2022-12-15T12:25:24;114.40;;;55.63;;
50900;SDS011;36879;51.416;6.678;2022-12-15T12:27:55;112.32;;;53.13;;
50900;SDS011;36879;51.416;6.678;2022-12-15T12:30:24;105.00;;;51.58;;
50900;SDS011;36879;51.416;6.678;2022-12-15T12:35:37;115.95;;;51.65;;
50900;SDS011;36879;51.416;6.678;2022-12-15T12:38:05;119.57;;;57.17;;
50900;SDS011;36879;51.416;6.678;2022-12-15T12:43:01;107.47;;;51.88;;
50900;SDS011;36879;51.416;6.678;2022-12-15T12:45:31;132.35;;;59.75;;
50900;SDS011;36879;51.416;6.678;2022-12-15T12:47:59;119.65;;;51.55;;
50900;SDS011;36879;51.416;6.678;2022-12-15T12:50:27;110.57;;;52.13;;
50900;SDS011;36879;51.416;6.678;2022-12-15T12:52:55;126.45;;;52.72;;
50900;SDS011;36879;51.416;6.678;2022-12-15T12:55:33;118.22;;;54.25;;
50900;SDS011;36879;51.416;6.678;2022-12-15T12:58:00;119.45;;;57.10;;
50900;SDS011;36879;51.416;6.678;2022-12-15T13:00:27;128.13;;;53.53;;
50900;SDS011;36879;51.416;6.678;2022-12-15T13:05:40;115.50;;;50.30;;
50900;SDS011;36879;51.416;6.678;2022-12-15T13:10:37;135.15;;;61.28;;
50900;SDS011;36879;51.416;6.678;2022-12-15T13:15:39;115.05;;;53.65;;
50900;SDS011;36879;51.416;6.678;2022-12-15T13:18:14;111.78;;;51.10;;
50900;SDS011;36879;51.416;6.678;2022-12-15T13:20:40;114.03;;;49.58;;
50900;SDS011;36879;51.416;6.678;2022-12-15T13:33:43;113.72;;;49.17;;
50900;SDS011;36879;51.416;6.678;2022-12-15T13:36:09;120.65;;;54.08;;
50900;SDS011;36879;51.416;6.678;2022-12-15T13:38:51;119.22;;;56.45;;
50900;SDS011;36879;51.416;6.678;2022-12-15T13:41:21;119.20;;;53.33;;
50900;SDS011;36879;51.416;6.678;2022-12-15T13:43:47;122.13;;;54.20;;
50900;SDS011;36879;51.416;6.678;2022-12-15T13:46:18;117.57;;;53.53;;
50900;SDS011;36879;51.416;6.678;2022-12-15T13:48:45;113.97;;;53.42;;
50900;SDS011;36879;51.416;6.678;2022-12-15T13:51:31;114.65;;;51.75;;
50900;SDS011;36879;51.416;6.678;2022-12-15T13:53:58;108.63;;;50.33;;
50900;SDS011;36879;51.416;6.678;2022-12-15T14:01:49;119.15;;;48.20;;
50900;SDS011;36879;51.416;6.678;2022-12-15T14:04:15;98.55;;;49.03;;
50900;SDS011;36879;51.416;6.678;2022-12-15T14:09:21;109.40;;;47.60;;
50900;SDS011;36879;51.416;6.678;2022-12-15T14:11:49;107.75;;;47.53;;
50900;SDS011;36879;51.416;6.678;2022-12-15T14:14:16;113.05;;;48.00;;
50900;SDS011;36879;51.416;6.678;2022-12-15T14:16:43;95.50;;;44.50;;
50900;SDS011;36879;51.416;6.678;2022-12-15T14:19:11;95.55;;;48.17;;
50900;SDS011;36879;51.416;6.678;2022-12-15T14:21:38;89.00;;;45.45;;
50900;SDS011;36879;51.416;6.678;2022-12-15T14:24:26;101.53;;;49.13;;
50900;SDS011;36879;51.416;6.678;2022-12-15T14:26:51;95.40;;;45.28;;
50900;SDS011;36879;51.416;6.678;2022-12-15T14:29:17;97.68;;;45.25;;
50900;SDS011;36879;51.416;6.678;2022-12-15T14:31:43;101.82;;;44.35;;
50900;SDS011;36879;51.416;6.678;2022-12-15T14:34:14;94.00;;;43.92;;
50900;SDS011;36879;51.416;6.678;2022-12-15T14:36:42;95.65;;;42.83;;
50900;SDS011;36879;51.416;6.678;2022-12-15T14:39:15;83.45;;;39.47;;
50900;SDS011;36879;51.416;6.678;2022-12-15T14:41:43;98.97;;;43.20;;
50900;SDS011;36879;51.416;6.678;2022-12-15T14:44:18;91.28;;;42.17;;
50900;SDS011;36879;51.416;6.678;2022-12-15T14:46:45;86.50;;;40.40;;
50900;SDS011;36879;51.416;6.678;2022-12-15T14:49:16;84.57;;;41.75;;
50900;SDS011;36879;51.416;6.678;2022-12-15T14:51:45;82.25;;;38.58;;
50900;SDS011;36879;51.416;6.678;2022-12-15T14:59:31;84.82;;;37.28;;
50900;SDS011;36879;51.416;6.678;2022-12-15T15:04:53;93.43;;;40.25;;
50900;SDS011;36879;51.416;6.678;2022-12-15T15:07:20;129.77;;;50.25;;
50900;SDS011;36879;51.416;6.678;2022-12-15T15:09:47;126.20;;;51.58;;
50900;SDS011;36879;51.416;6.678;2022-12-15T15:14:40;100.88;;;46.17;;
50900;SDS011;36879;51.416;6.678;2022-12-15T15:17:07;94.55;;;41.20;;
50900;SDS011;36879;51.416;6.678;2022-12-15T15:19:56;93.13;;;40.03;;
50900;SDS011;36879;51.416;6.678;2022-12-15T15:22:25;142.02;;;59.13;;
50900;SDS011;36879;51.416;6.678;2022-12-15T15:24:52;140.20;;;57.28;;
50900;SDS011;36879;51.416;6.678;2022-12-15T15:29:50;94.72;;;41.00;;
50900;SDS011;36879;51.416;6.678;2022-12-15T15:32:20;95.38;;;42.20;;
50900;SDS011;36879;51.416;6.678;2022-12-15T15:34:47;84.72;;;41.30;;
50900;SDS011;36879;51.416;6.678;2022-12-15T15:37:23;107.85;;;44.55;;
50900;SDS011;36879;51.416;6.678;2022-12-15T15:39:50;94.38;;;39.20;;
50900;SDS011;36879;51.416;6.678;2022-12-15T15:42:16;99.10;;;41.97;;
50900;SDS011;36879;51.416;6.678;2022-12-15T15:44:42;97.63;;;41.25;;
50900;SDS011;36879;51.416;6.678;2022-12-15T15:47:23;103.68;;;46.13;;
50900;SDS011;36879;51.416;6.678;2022-12-15T15:49:50;97.68;;;44.33;;
50900;SDS011;36879;51.416;6.678;2022-12-15T15:52:16;109.40;;;45.55;;
50900;SDS011;36879;51.416;6.678;2022-12-15T15:54:43;109.85;;;46.88;;
50900;SDS011;36879;51.416;6.678;2022-12-15T15:57:13;97.13;;;42.17;;
50900;SDS011;36879;51.416;6.678;2022-12-15T15:59:39;94.03;;;39.25;;
50900;SDS011;36879;51.416;6.678;2022-12-15T16:02:07;86.47;;;40.97;;
50900;SDS011;36879;51.416;6.678;2022-12-15T16:04:34;93.80;;;39.17;;
50900;SDS011;36879;51.416;6.678;2022-12-15T16:07:04;99.30;;;41.95;;
50900;SDS011;36879;51.416;6.678;2022-12-15T16:09:30;96.22;;;43.67;;
50900;SDS011;36879;51.416;6.678;2022-12-15T16:11:56;95.32;;;41.90;;
50900;SDS011;36879;51.416;6.678;2022-12-15T16:14:22;90.70;;;40.78;;
50900;SDS011;36879;51.416;6.678;2022-12-15T16:16:48;95.25;;;42.78;;
50900;SDS011;36879;51.416;6.678;2022-12-15T16:19:14;95.47;;;41.70;;
50900;SDS011;36879;51.416;6.678;2022-12-15T16:21:41;89.32;;;42.50;;
50900;SDS011;36879;51.416;6.678;2022-12-15T16:24:09;94.90;;;43.55;;
50900;SDS011;36879;51.416;6.678;2022-12-15T16:26:35;91.88;;;42.58;;
50900;SDS011;36879;51.416;6.678;2022-12-15T16:29:05;100.20;;;42.83;;
50900;SDS011;36879;51.416;6.678;2022-12-15T16:31:32;98.22;;;40.72;;
50900;SDS011;36879;51.416;6.678;2022-12-15T16:34:01;99.60;;;42.85;;
50900;SDS011;36879;51.416;6.678;2022-12-15T16:36:27;83.38;;;39.17;;